Time;durP1;ratioP1;P1;durP2;ratioP2;P2;SDS_P1;SDS_P2;PMS_P1;PMS_P2;Temp;Humidity;BMP_temperature;BMP_pressure;BME280_temperature;BME280_humidity;BME280_pressure;Samples;Min_cycle;Max_cycle;Signal;HPM_P1;HPM_P2
2021/08/08 00:02:26;;;;;;;5.45;2.90;;;;;;;24.78;100.00;100891.47;5095749;28;20028;-71
2021/08/08 00:05:13;;;;;;;3.88;2.92;;;;;;;24.65;100.00;100890.66;5094823;28;20034;-71
2021/08/08 00:07:58;;;;;;;4.95;3.30;;;;;;;24.52;100.00;100893.38;5095436;28;20459;-71
2021/08/08 00:10:44;;;;;;;4.43;3.35;;;;;;;24.56;100.00;100894.84;5094625;28;20371;-71
2021/08/08 00:13:30;;;;;;;4.25;3.22;;;;;;;24.77;100.00;100900.50;5094851;28;20038;-71
2021/08/08 00:16:16;;;;;;;3.72;3.35;;;;;;;24.56;100.00;100902.03;5094429;28;20089;-71
2021/08/08 00:19:03;;;;;;;4.70;3.00;;;;;;;24.70;100.00;100893.84;5095300;28;20016;-71
2021/08/08 00:21:49;;;;;;;5.30;3.20;;;;;;;24.52;100.00;100895.19;5094093;28;20356;-71
2021/08/08 00:24:34;;;;;;;4.30;3.08;;;;;;;24.54;100.00;100899.47;5094420;28;20107;-71
2021/08/08 00:27:20;;;;;;;4.43;2.75;;;;;;;24.70;100.00;100899.22;5094037;28;20020;-71
2021/08/08 00:30:08;;;;;;;3.45;2.65;;;;;;;24.56;100.00;100904.69;5095249;28;20020;-72
2021/08/08 00:32:54;;;;;;;3.25;2.78;;;;;;;24.35;100.00;100898.22;5093839;28;20027;-72
2021/08/08 00:35:42;;;;;;;2.92;2.63;;;;;;;24.44;100.00;100889.50;5094275;28;20052;-71
2021/08/08 00:38:28;;;;;;;5.50;2.78;;;;;;;24.22;100.00;100886.66;5093875;28;20028;-72
2021/08/08 00:41:14;;;;;;;3.42;2.47;;;;;;;24.38;100.00;100903.31;5094271;28;20027;-71
2021/08/08 00:43:59;;;;;;;3.80;2.70;;;;;;;24.16;100.00;100898.66;5093691;28;20023;-71
2021/08/08 00:46:45;;;;;;;3.50;2.90;;;;;;;23.89;100.00;100905.91;5093919;28;20048;-71
2021/08/08 00:49:33;;;;;;;3.60;2.70;;;;;;;24.13;100.00;100914.06;5094794;28;20030;-71
2021/08/08 00:52:19;;;;;;;3.55;2.65;;;;;;;24.25;100.00;100903.38;5094253;28;20466;-71
2021/08/08 00:55:06;;;;;;;3.53;2.90;;;;;;;24.10;100.00;100904.44;5094853;28;20059;-71
2021/08/08 00:57:52;;;;;;;3.38;2.80;;;;;;;23.95;100.00;100910.00;5093417;28;20068;-71
2021/08/08 01:00:40;;;;;;;4.63;2.83;;;;;;;23.79;100.00;100917.34;5094262;28;20464;-71
2021/08/08 01:03:27;;;;;;;4.13;2.90;;;;;;;23.78;100.00;100918.31;5094055;28;20024;-70
2021/08/08 01:06:22;;;;;;;3.58;3.00;;;;;;;23.76;100.00;100917.56;5094098;28;20017;-71
2021/08/08 01:09:11;;;;;;;5.82;3.05;;;;;;;23.82;100.00;100920.66;5093992;28;20034;-71
2021/08/08 01:11:59;;;;;;;4.00;2.90;;;;;;;23.78;100.00;100921.84;5095802;28;20418;-70
2021/08/08 01:14:46;;;;;;;5.95;2.88;;;;;;;23.68;100.00;100920.75;5098526;28;20356;-70
2021/08/08 01:17:33;;;;;;;4.35;2.60;;;;;;;23.44;100.00;100915.22;5098202;28;20056;-71
2021/08/08 01:20:19;;;;;;;3.25;2.95;;;;;;;23.45;100.00;100918.78;5097914;28;20455;-71
2021/08/08 01:23:08;;;;;;;4.70;2.65;;;;;;;23.50;100.00;100919.31;5097362;28;20032;-71
2021/08/08 01:25:54;;;;;;;3.35;3.03;;;;;;;23.59;100.00;100923.19;5098301;28;20027;-71
2021/08/08 01:28:40;;;;;;;4.80;2.95;;;;;;;24.08;100.00;100922.44;5097764;28;20316;-71
2021/08/08 01:31:27;;;;;;;4.47;2.95;;;;;;;23.76;100.00;100922.91;5098332;28;20110;-71
2021/08/08 01:34:12;;;;;;;4.03;2.92;;;;;;;23.71;100.00;100919.69;5097697;28;20119;-70
2021/08/08 01:36:58;;;;;;;5.95;3.35;;;;;;;23.75;100.00;100926.56;5097655;28;20028;-70
2021/08/08 01:39:52;;;;;;;3.28;2.80;;;;;;;23.71;100.00;100923.22;5097730;28;20024;-71
2021/08/08 01:42:39;;;;;;;4.20;3.17;;;;;;;24.21;100.00;100922.41;5097875;28;20042;-70
2021/08/08 01:45:25;;;;;;;4.45;2.90;;;;;;;24.20;100.00;100931.44;5097352;28;20088;-70
2021/08/08 01:48:12;;;;;;;3.25;2.95;;;;;;;23.83;100.00;100924.22;5098533;28;20035;-71
2021/08/08 01:50:59;;;;;;;3.90;2.65;;;;;;;24.10;100.00;100939.25;5097423;28;20024;-71
2021/08/08 01:53:45;;;;;;;3.90;2.63;;;;;;;23.89;100.00;100926.44;5097632;28;20027;-71
2021/08/08 01:56:31;;;;;;;5.07;3.00;;;;;;;23.75;100.00;100931.91;5097176;28;20438;-71
2021/08/08 01:59:18;;;;;;;6.57;2.90;;;;;;;23.97;100.00;100930.34;5097041;28;20032;-71
2021/08/08 02:02:11;;;;;;;4.43;2.80;;;;;;;24.27;100.00;100928.19;5096997;28;20047;-70
2021/08/08 02:04:58;;;;;;;3.80;2.50;;;;;;;23.73;100.00;100941.84;5096999;28;20477;-71
2021/08/08 02:07:43;;;;;;;3.78;2.60;;;;;;;23.91;100.00;100943.28;5097953;28;20031;-70
2021/08/08 02:10:29;;;;;;;2.75;2.45;;;;;;;24.12;100.00;100944.50;5097162;28;20020;-70
2021/08/08 02:13:15;;;;;;;5.93;3.05;;;;;;;24.03;100.00;100947.81;5098515;28;20093;-71
2021/08/08 02:16:01;;;;;;;3.58;2.72;;;;;;;23.82;100.00;100947.44;5096700;28;20027;-71
2021/08/08 02:18:46;;;;;;;4.68;2.97;;;;;;;23.91;100.00;100951.31;5097244;28;20096;-71
2021/08/08 02:21:32;;;;;;;3.85;2.85;;;;;;;23.68;100.00;100960.03;5096307;28;20119;-71
2021/08/08 02:24:18;;;;;;;4.25;2.90;;;;;;;23.63;100.00;100962.16;5096639;28;20112;-71
2021/08/08 02:27:04;;;;;;;3.20;2.80;;;;;;;23.23;100.00;100963.97;5096628;28;20353;-71
2021/08/08 02:29:50;;;;;;;4.93;2.95;;;;;;;23.57;100.00;100962.56;5097005;28;20024;-71
2021/08/08 02:32:36;;;;;;;4.20;3.15;;;;;;;23.44;100.00;100978.59;5096559;28;20024;-71
2021/08/08 02:35:22;;;;;;;4.20;3.40;;;;;;;23.63;100.00;100975.53;5096637;28;20085;-71
2021/08/08 02:38:07;;;;;;;4.63;2.83;;;;;;;23.43;100.00;100977.72;5097226;28;20128;-71
2021/08/08 02:40:53;;;;;;;4.22;3.40;;;;;;;23.42;100.00;100985.84;5096194;28;20063;-71
2021/08/08 02:43:39;;;;;;;7.70;4.15;;;;;;;22.61;100.00;100992.00;5096476;28;20020;-71
2021/08/08 02:46:25;;;;;;;7.45;4.90;;;;;;;22.53;100.00;100978.28;5096430;28;20065;-71
2021/08/08 02:49:10;;;;;;;8.43;4.70;;;;;;;22.69;100.00;100994.19;5096698;28;20452;-71
2021/08/08 02:51:56;;;;;;;7.97;4.85;;;;;;;22.38;100.00;100997.03;5096319;28;20528;-71
2021/08/08 02:54:42;;;;;;;6.88;5.03;;;;;;;21.99;100.00;101005.59;5095660;28;20058;-71
2021/08/08 02:57:28;;;;;;;8.95;4.90;;;;;;;22.44;100.00;101002.84;5095862;28;20119;-71
2021/08/08 03:00:14;;;;;;;6.25;4.63;;;;;;;22.32;100.00;101008.94;5096260;28;20020;-72
2021/08/08 03:02:59;;;;;;;5.50;4.72;;;;;;;22.53;100.00;101014.78;5096360;28;20116;-71
2021/08/08 03:05:45;;;;;;;6.68;4.38;;;;;;;22.68;100.00;101020.06;5096422;28;20028;-71
2021/08/08 03:08:31;;;;;;;8.00;4.72;;;;;;;22.32;100.00;101016.06;5096358;28;20372;-71
2021/08/08 03:11:17;;;;;;;7.90;4.82;;;;;;;22.48;100.00;101020.44;5096087;28;20043;-71
2021/08/08 03:14:03;;;;;;;6.25;4.65;;;;;;;22.43;100.00;101026.97;5095415;28;20085;-71
2021/08/08 03:16:49;;;;;;;10.50;5.28;;;;;;;22.45;100.00;101038.41;5095606;28;20024;-71
2021/08/08 03:19:35;;;;;;;6.50;4.88;;;;;;;22.17;100.00;101030.34;5095861;28;20043;-71
2021/08/08 03:22:20;;;;;;;11.07;5.78;;;;;;;22.19;100.00;101039.97;5095805;28;20036;-71
2021/08/08 03:25:07;;;;;;;9.90;5.68;;;;;;;22.66;100.00;101046.00;5095848;28;20126;-71
2021/08/08 03:27:52;;;;;;;7.43;5.53;;;;;;;22.34;100.00;101043.56;5095295;28;20032;-72
2021/08/08 03:30:39;;;;;;;6.72;4.95;;;;;;;22.20;100.00;101043.50;5095838;28;20024;-71
2021/08/08 03:33:25;;;;;;;8.02;5.45;;;;;;;22.19;100.00;101037.31;5095059;28;20038;-71
2021/08/08 03:36:11;;;;;;;5.65;5.05;;;;;;;22.54;100.00;101043.19;5094237;28;20333;-71
2021/08/08 03:38:57;;;;;;;5.90;5.25;;;;;;;22.49;100.00;101045.31;5095003;28;20669;-71
2021/08/08 03:41:43;;;;;;;7.00;5.05;;;;;;;22.18;100.00;101054.28;5095399;28;20034;-71
2021/08/08 03:44:29;;;;;;;6.15;4.80;;;;;;;22.00;100.00;101059.84;5095678;28;20081;-71
2021/08/08 03:47:14;;;;;;;7.30;4.60;;;;;;;22.06;100.00;101055.00;5095294;28;20020;-71
2021/08/08 03:50:00;;;;;;;7.18;4.60;;;;;;;22.05;100.00;101055.09;5095590;28;20389;-71
2021/08/08 03:52:46;;;;;;;5.75;4.68;;;;;;;21.92;100.00;101049.63;5095174;28;20020;-71
2021/08/08 03:55:32;;;;;;;8.25;4.68;;;;;;;21.90;100.00;101046.19;5095027;28;20040;-71
2021/08/08 03:58:18;;;;;;;6.07;4.70;;;;;;;22.20;100.00;101054.19;5097213;27;20028;-71
2021/08/08 04:01:03;;;;;;;6.43;4.35;;;;;;;22.16;100.00;101055.31;5094979;28;20031;-71
2021/08/08 04:03:49;;;;;;;5.38;4.28;;;;;;;22.42;100.00;101054.63;5094626;28;20063;-71
2021/08/08 04:06:35;;;;;;;6.75;4.25;;;;;;;22.49;100.00;101056.00;5095307;28;20463;-70
2021/08/08 04:09:21;;;;;;;8.07;4.05;;;;;;;22.51;100.00;101060.28;5095026;28;20028;-71
2021/08/08 04:12:10;;;;;;;6.13;4.10;;;;;;;22.77;100.00;101064.91;5094720;28;20063;-71
2021/08/08 04:14:55;;;;;;;7.85;4.28;;;;;;;22.55;100.00;101061.81;5094493;28;20371;-71
2021/08/08 04:17:41;;;;;;;7.82;4.00;;;;;;;22.79;100.00;101064.81;5095246;28;20038;-71
2021/08/08 04:20:27;;;;;;;4.78;3.70;;;;;;;22.47;100.00;101060.56;5094835;28;20024;-71
2021/08/08 04:23:13;;;;;;;6.03;4.13;;;;;;;22.93;100.00;101062.09;5093972;28;20023;-71
2021/08/08 04:25:58;;;;;;;6.82;3.67;;;;;;;23.08;100.00;101056.66;5094752;28;20031;-71
2021/08/08 04:28:44;;;;;;;5.38;3.22;;;;;;;23.34;100.00;101073.72;5094487;28;20028;-71
2021/08/08 04:31:30;;;;;;;6.00;3.80;;;;;;;23.05;100.00;101072.91;5094717;28;20452;-71
2021/08/08 04:34:16;;;;;;;6.97;4.07;;;;;;;23.17;100.00;101076.59;5093810;28;20034;-72
2021/08/08 04:37:02;;;;;;;5.45;3.50;;;;;;;23.28;100.00;101079.50;5094297;28;20024;-70
2021/08/08 04:39:49;;;;;;;5.78;3.90;;;;;;;23.62;100.00;101078.19;5094503;28;20035;-71
2021/08/08 04:42:36;;;;;;;4.15;3.45;;;;;;;23.53;100.00;101074.28;5094480;28;20533;-71
2021/08/08 04:45:22;;;;;;;5.32;3.60;;;;;;;23.68;100.00;101078.63;5094510;28;20032;-70
2021/08/08 04:48:08;;;;;;;4.25;3.28;;;;;;;23.77;100.00;101082.50;5094674;28;20097;-71
2021/08/08 04:50:54;;;;;;;4.57;3.50;;;;;;;23.98;100.00;101084.66;5093987;28;20440;-72
2021/08/08 04:53:40;;;;;;;4.20;3.33;;;;;;;23.76;100.00;101078.97;5094215;28;20110;-72
2021/08/08 04:56:25;;;;;;;4.43;3.40;;;;;;;24.11;100.00;101077.50;5094186;28;20039;-71
2021/08/08 04:59:12;;;;;;;4.75;2.97;;;;;;;24.09;100.00;101089.28;5094136;28;20048;-71
2021/08/08 05:01:58;;;;;;;4.05;3.38;;;;;;;24.22;100.00;101093.69;5094396;28;20032;-71
2021/08/08 05:04:44;;;;;;;6.82;3.83;;;;;;;24.22;100.00;101098.22;5093945;28;20020;-71
2021/08/08 05:07:29;;;;;;;3.60;3.22;;;;;;;24.06;100.00;101093.03;5095163;28;20023;-71
2021/08/08 05:10:18;;;;;;;4.72;3.60;;;;;;;24.10;100.00;101091.00;5093889;28;20034;-71
2021/08/08 05:13:04;;;;;;;3.75;3.05;;;;;;;24.34;100.00;101089.34;5093990;28;20032;-71
2021/08/08 05:15:52;;;;;;;4.18;3.55;;;;;;;24.37;100.00;101097.16;5093735;28;20027;-72
2021/08/08 05:18:37;;;;;;;4.38;3.10;;;;;;;24.26;100.00;101092.53;5094362;28;20097;-72
2021/08/08 05:21:23;;;;;;;4.38;3.58;;;;;;;24.69;100.00;101094.03;5093788;28;20028;-71
2021/08/08 05:24:09;;;;;;;3.72;3.33;;;;;;;24.67;100.00;101095.09;5093816;28;20032;-71
2021/08/08 05:26:56;;;;;;;5.25;3.45;;;;;;;24.75;100.00;101096.25;5093672;28;20024;-72
2021/08/08 05:29:42;;;;;;;5.40;3.30;;;;;;;25.08;100.00;101101.06;5093927;28;20198;-71
2021/08/08 05:32:28;;;;;;;5.32;3.42;;;;;;;24.85;100.00;101099.16;5093788;28;20115;-72
2021/08/08 05:35:14;;;;;;;4.82;3.10;;;;;;;25.21;100.00;101093.88;5094189;28;20028;-71
2021/08/08 05:37:59;;;;;;;4.38;3.05;;;;;;;25.38;100.00;101088.16;5093695;28;20148;-71
2021/08/08 05:40:45;;;;;;;5.32;3.13;;;;;;;25.23;100.00;101089.25;5093489;28;20024;-71
2021/08/08 05:43:31;;;;;;;4.50;3.03;;;;;;;25.40;100.00;101096.97;5093775;28;20028;-72
2021/08/08 05:46:17;;;;;;;3.83;2.90;;;;;;;25.52;100.00;101096.06;5093460;28;20094;-72
2021/08/08 05:49:03;;;;;;;4.00;3.10;;;;;;;25.76;100.00;101086.22;5093860;28;20402;-71
2021/08/08 05:51:48;;;;;;;4.75;2.80;;;;;;;25.69;100.00;101093.88;5093529;28;20032;-71
2021/08/08 05:54:34;;;;;;;4.40;3.30;;;;;;;25.64;100.00;101097.88;5093530;28;20044;-72
2021/08/08 05:57:20;;;;;;;4.28;3.25;;;;;;;26.10;97.23;101086.28;5093187;28;20113;-72
2021/08/08 06:00:06;;;;;;;7.80;2.80;;;;;;;26.01;97.28;101096.88;5097986;28;20020;-71
2021/08/08 06:02:52;;;;;;;8.52;3.30;;;;;;;25.90;97.70;101088.72;5097571;28;20032;-72
2021/08/08 06:05:38;;;;;;;4.53;2.95;;;;;;;26.32;96.67;101098.94;5097991;28;20345;-71
2021/08/08 06:08:24;;;;;;;3.50;2.92;;;;;;;26.24;95.60;101094.16;5097271;28;20027;-71
2021/08/08 06:11:09;;;;;;;5.55;3.03;;;;;;;26.14;95.79;101089.59;5097557;28;20040;-71
2021/08/08 06:13:55;;;;;;;3.45;2.65;;;;;;;26.16;95.98;101085.81;5097364;28;20038;-71
2021/08/08 06:16:41;;;;;;;6.82;2.80;;;;;;;26.90;91.08;101086.25;5096714;28;20438;-71
2021/08/08 06:19:27;;;;;;;3.67;3.28;;;;;;;26.85;88.11;101087.59;5096285;28;20032;-72
2021/08/08 06:22:14;;;;;;;3.53;2.83;;;;;;;26.81;90.78;101088.81;5096747;28;20023;-72
2021/08/08 06:24:59;;;;;;;4.63;3.08;;;;;;;27.44;87.92;101083.69;5096871;28;20023;-72
2021/08/08 06:27:45;;;;;;;4.05;2.70;;;;;;;26.87;86.71;101083.81;5096656;28;20024;-72
2021/08/08 06:30:31;;;;;;;6.00;3.08;;;;;;;26.94;88.01;101078.81;5096933;28;20165;-72
2021/08/08 06:33:17;;;;;;;4.32;2.65;;;;;;;27.32;86.20;101084.66;5097046;28;20039;-72
2021/08/08 06:36:03;;;;;;;3.30;2.80;;;;;;;27.12;88.00;101088.94;5096646;28;20024;-72
2021/08/08 06:38:50;;;;;;;3.78;2.90;;;;;;;27.30;87.46;101100.09;5096724;28;20024;-72
2021/08/08 06:41:35;;;;;;;3.63;2.70;;;;;;;27.88;82.22;101093.53;5096357;28;20039;-71
2021/08/08 06:44:21;;;;;;;5.47;2.47;;;;;;;27.90;83.16;101087.03;5096569;28;20032;-72
2021/08/08 06:47:07;;;;;;;4.30;2.80;;;;;;;28.26;79.26;101093.84;5096003;28;20140;-70
2021/08/08 06:49:53;;;;;;;5.95;2.45;;;;;;;27.91;79.79;101102.19;5096471;28;20020;-72
2021/08/08 06:52:38;;;;;;;5.93;3.00;;;;;;;28.10;77.19;101105.09;5096100;28;20103;-72
2021/08/08 06:55:25;;;;;;;5.25;2.50;;;;;;;28.16;75.22;101106.41;5096112;28;20036;-71
2021/08/08 06:58:11;;;;;;;3.88;2.72;;;;;;;28.11;76.30;101104.09;5082381;28;20379;-72
2021/08/08 07:00:56;;;;;;;4.57;2.72;;;;;;;28.60;73.23;101107.03;5096373;28;20357;-72
2021/08/08 07:03:43;;;;;;;4.28;2.65;;;;;;;28.75;69.08;101111.13;5095945;28;20031;-72
2021/08/08 07:06:28;;;;;;;2.95;2.65;;;;;;;28.57;70.48;101103.78;5095860;28;20058;-72
2021/08/08 07:09:14;;;;;;;4.43;2.47;;;;;;;28.50;70.42;101114.22;5096003;28;20046;-72
2021/08/08 07:12:00;;;;;;;4.13;2.83;;;;;;;29.20;68.86;101120.63;5096732;28;20032;-71
2021/08/08 07:14:46;;;;;;;2.80;2.40;;;;;;;28.69;66.11;101114.34;5096043;28;20483;-72
2021/08/08 07:17:31;;;;;;;4.43;2.53;;;;;;;29.26;64.44;101122.78;5095510;28;20020;-72
2021/08/08 07:20:17;;;;;;;3.13;2.70;;;;;;;29.66;63.02;101117.41;5096003;28;20101;-72
2021/08/08 07:23:03;;;;;;;4.65;3.08;;;;;;;29.47;62.49;101115.47;5095645;28;20364;-71
2021/08/08 07:25:49;;;;;;;3.50;2.40;;;;;;;29.71;59.94;101120.53;5095974;28;20043;-69
2021/08/08 07:28:34;;;;;;;3.03;2.60;;;;;;;29.17;60.62;101117.34;5095581;28;20028;-70
2021/08/08 07:31:20;;;;;;;3.45;2.47;;;;;;;29.50;58.30;101117.03;5095951;28;20360;-70
2021/08/08 07:34:06;;;;;;;4.22;2.90;;;;;;;29.88;56.37;101115.31;5095478;28;20032;-70
2021/08/08 07:36:52;;;;;;;4.68;2.70;;;;;;;29.76;56.03;101119.13;5095431;28;20024;-70
2021/08/08 07:39:37;;;;;;;6.47;2.78;;;;;;;29.52;56.78;101126.72;5095115;28;20035;-71
2021/08/08 07:42:23;;;;;;;3.45;2.38;;;;;;;30.31;55.17;101123.03;5095579;28;20107;-70
2021/08/08 07:45:09;;;;;;;4.18;2.85;;;;;;;30.29;55.52;101125.03;5095308;28;20024;-70
2021/08/08 07:47:55;;;;;;;3.20;2.70;;;;;;;30.81;53.71;101125.44;5095331;28;20533;-69
2021/08/08 07:50:40;;;;;;;5.80;2.70;;;;;;;31.10;53.12;101123.47;5095285;28;20392;-69
2021/08/08 07:53:26;;;;;;;3.60;2.83;;;;;;;30.70;52.32;101119.34;5095035;28;20027;-70
2021/08/08 07:56:12;;;;;;;3.50;2.80;;;;;;;30.94;54.75;101125.13;5094742;28;20135;-70
2021/08/08 07:58:58;;;;;;;5.20;2.70;;;;;;;31.38;54.59;101117.13;5095036;28;20047;-70
2021/08/08 08:01:43;;;;;;;3.60;2.45;;;;;;;31.11;54.52;101117.06;5095074;28;20039;-70
2021/08/08 08:04:29;;;;;;;5.57;2.92;;;;;;;31.83;53.47;101121.75;5094883;28;20467;-70
2021/08/08 08:07:15;;;;;;;4.05;2.80;;;;;;;31.57;53.92;101118.88;5094959;28;20107;-70
2021/08/08 08:10:01;;;;;;;3.28;2.55;;;;;;;31.95;53.19;101120.53;5095119;28;20448;-74
2021/08/08 08:12:47;;;;;;;4.47;2.70;;;;;;;31.82;52.68;101126.31;5095063;28;20032;-71
2021/08/08 08:15:33;;;;;;;8.90;3.00;;;;;;;32.08;54.66;101118.28;5094433;28;20078;-71
2021/08/08 08:18:18;;;;;;;3.03;2.70;;;;;;;32.17;53.79;101122.75;5094757;28;20103;-71
2021/08/08 08:21:04;;;;;;;3.85;2.72;;;;;;;32.14;51.25;101123.94;5094366;28;20116;-72
2021/08/08 08:23:50;;;;;;;2.95;2.65;;;;;;;32.72;47.25;101130.59;5094651;28;20039;-71
2021/08/08 08:26:36;;;;;;;3.45;2.60;;;;;;;32.50;44.77;101124.81;5094748;28;20119;-70
2021/08/08 08:29:21;;;;;;;4.78;2.63;;;;;;;32.61;45.41;101121.81;5094133;28;20035;-70
2021/08/08 08:32:07;;;;;;;3.33;2.50;;;;;;;33.32;46.91;101123.38;5094520;28;20036;-69
2021/08/08 08:34:53;;;;;;;2.83;2.50;;;;;;;33.67;47.73;101123.19;5094707;28;20096;-70
2021/08/08 08:37:39;;;;;;;3.65;2.58;;;;;;;33.80;46.53;101123.56;5094717;28;20032;-70
2021/08/08 08:40:25;;;;;;;2.55;2.35;;;;;;;33.80;45.46;101121.69;5094290;28;20034;-70
2021/08/08 08:43:11;;;;;;;6.07;3.40;;;;;;;33.91;46.38;101117.84;5094837;28;20028;-71
2021/08/08 08:45:57;;;;;;;3.22;2.55;;;;;;;34.49;44.05;101114.03;5093264;28;20181;-70
2021/08/08 08:48:44;;;;;;;3.03;2.58;;;;;;;34.50;43.96;101110.25;5094079;28;20444;-70
2021/08/08 08:51:40;;;;;;;4.43;2.80;;;;;;;34.36;42.38;101115.53;5094147;28;20028;-70
2021/08/08 08:54:28;;;;;;;4.05;2.67;;;;;;;34.49;40.99;101114.03;5093902;28;20048;-70
2021/08/08 08:57:15;;;;;;;5.03;2.70;;;;;;;34.64;40.11;101119.63;5094326;28;20471;-71
2021/08/08 09:00:05;;;;;;;5.93;2.80;;;;;;;34.98;40.69;101106.66;5093698;28;20054;-70
2021/08/08 09:02:51;;;;;;;2.75;2.50;;;;;;;35.20;40.35;101105.91;5093001;28;20027;-70
2021/08/08 09:05:37;;;;;;;3.35;2.70;;;;;;;34.44;40.17;101096.50;5096642;28;20093;-71
2021/08/08 09:08:22;;;;;;;5.93;2.70;;;;;;;34.50;41.21;101096.66;5098245;28;20460;-71
2021/08/08 09:11:09;;;;;;;3.55;2.65;;;;;;;34.16;40.91;101103.25;5095202;28;20081;-69
2021/08/08 09:13:57;;;;;;;3.42;3.03;;;;;;;34.28;42.08;101096.47;5094314;28;20024;-69
2021/08/08 09:16:48;;;;;;;4.00;2.65;;;;;;;34.16;42.12;101097.81;5094273;28;20368;-69
2021/08/08 09:19:34;;;;;;;3.60;3.30;;;;;;;33.95;41.85;101094.75;5094230;28;20020;-69
2021/08/08 09:22:21;;;;;;;3.70;2.90;;;;;;;34.51;39.24;101098.34;5096930;28;20028;-70
2021/08/08 09:25:21;;;;;;;4.07;2.95;;;;;;;35.02;39.66;101108.84;5099646;28;20111;-70
2021/08/08 09:28:09;;;;;;;4.40;2.90;;;;;;;34.83;40.01;101102.94;5094958;28;20066;-70
2021/08/08 09:30:54;;;;;;;4.65;2.63;;;;;;;34.35;39.48;101106.53;5094628;28;20047;-71
2021/08/08 09:33:41;;;;;;;3.90;3.00;;;;;;;34.10;41.91;101095.75;5096153;28;20020;-70
2021/08/08 09:36:39;;;;;;;3.35;2.40;;;;;;;34.06;39.98;101089.81;5097701;28;20028;-70
2021/08/08 09:39:37;;;;;;;3.65;3.00;;;;;;;34.69;39.89;101092.72;5097200;28;20452;-70
2021/08/08 09:42:25;;;;;;;2.90;2.47;;;;;;;34.47;39.35;101094.28;5097127;28;20031;-71
2021/08/08 09:45:14;;;;;;;2.75;2.55;;;;;;;34.29;38.95;101098.16;5097251;28;20471;-71
2021/08/08 09:48:00;;;;;;;3.33;2.78;;;;;;;33.86;39.29;101074.81;5097357;28;20459;-71
2021/08/08 09:50:46;;;;;;;3.40;3.10;;;;;;;34.53;38.54;101087.28;5097885;28;20032;-71
2021/08/08 09:53:32;;;;;;;3.35;2.47;;;;;;;34.82;38.31;101079.44;5097971;28;20119;-71
2021/08/08 09:56:19;;;;;;;3.10;2.80;;;;;;;34.89;37.15;101075.88;5097084;28;20476;-70
2021/08/08 09:59:05;;;;;;;3.55;2.50;;;;;;;34.16;37.29;101082.31;5097075;28;20410;-71
2021/08/08 10:01:51;;;;;;;3.92;2.83;;;;;;;34.46;37.86;101089.00;5096927;28;20042;-70
2021/08/08 10:04:36;;;;;;;2.65;2.38;;;;;;;34.23;37.92;101088.78;5097204;28;20036;-71
2021/08/08 10:07:22;;;;;;;4.82;2.72;;;;;;;33.93;38.15;101085.88;5097685;28;20054;-70
2021/08/08 10:10:08;;;;;;;5.05;3.17;;;;;;;33.95;38.06;101076.53;5097252;28;20119;-71
2021/08/08 10:13:09;;;;;;;3.47;2.80;;;;;;;33.49;38.18;101084.38;5097594;28;20032;-71
2021/08/08 10:15:57;;;;;;;3.47;2.78;;;;;;;33.87;38.91;101073.78;5096870;28;20067;-71
2021/08/08 10:18:53;;;;;;;3.20;2.80;;;;;;;33.93;37.84;101081.31;5096962;28;20043;-71
2021/08/08 10:21:45;;;;;;;3.45;2.83;;;;;;;33.95;38.32;101079.25;5096500;28;20024;-70
2021/08/08 10:24:31;;;;;;;4.13;2.95;;;;;;;33.90;38.25;101075.31;5097179;28;20040;-70
2021/08/08 10:27:21;;;;;;;7.80;2.42;;;;;;;33.77;38.55;101081.25;5096714;28;20024;-70
2021/08/08 10:30:07;;;;;;;4.30;2.70;;;;;;;34.06;38.27;101069.91;5097277;28;20028;-71
2021/08/08 10:32:53;;;;;;;4.20;3.00;;;;;;;34.11;37.85;101073.00;5096803;28;20360;-71
2021/08/08 10:35:44;;;;;;;4.10;2.67;;;;;;;34.06;36.74;101072.63;5096009;28;20034;-70
2021/08/08 10:38:36;;;;;;;5.25;2.65;;;;;;;33.96;36.61;101070.06;5096982;28;20093;-69
2021/08/08 10:41:22;;;;;;;6.25;3.53;;;;;;;34.19;36.02;101076.56;5096894;28;20028;-70
2021/08/08 10:44:15;;;;;;;10.80;5.60;;;;;;;34.56;36.21;101076.06;5098015;28;20028;-70
2021/08/08 10:47:00;;;;;;;3.55;2.50;;;;;;;34.80;35.96;101078.78;5097278;28;20020;-70
2021/08/08 10:49:46;;;;;;;4.78;2.50;;;;;;;34.36;35.45;101072.84;5099016;28;20035;-70
2021/08/08 10:52:43;;;;;;;2.90;2.35;;;;;;;34.48;35.35;101066.03;5096392;28;20028;-70
2021/08/08 10:55:30;;;;;;;3.55;2.40;;;;;;;34.19;35.06;101059.41;5096577;28;20064;-70
2021/08/08 10:58:16;;;;;;;2.88;2.65;;;;;;;34.14;34.85;101064.47;5096252;28;20032;-70
2021/08/08 11:01:19;;;;;;;9.25;2.67;;;;;;;34.24;34.86;101066.00;5096390;28;20032;-70
2021/08/08 11:04:07;;;;;;;5.13;2.58;;;;;;;33.82;34.65;101057.16;5096087;28;20417;-70
2021/08/08 11:06:53;;;;;;;4.07;2.50;;;;;;;33.65;35.02;101059.97;5095506;28;20364;-70
2021/08/08 11:09:42;;;;;;;2.60;2.30;;;;;;;34.47;34.65;101058.06;5096088;28;20028;-70
2021/08/08 11:12:36;;;;;;;2.85;2.47;;;;;;;34.56;34.68;101062.47;5096018;28;20059;-69
2021/08/08 11:15:35;;;;;;;2.70;2.40;;;;;;;34.53;34.00;101058.22;5095394;28;20032;-71
2021/08/08 11:18:31;;;;;;;4.03;2.55;;;;;;;34.69;34.30;101051.88;5096201;28;20053;-70
2021/08/08 11:21:16;;;;;;;3.75;3.10;;;;;;;35.26;33.74;101047.97;5095655;28;20032;-70
2021/08/08 11:24:05;;;;;;;3.00;2.70;;;;;;;34.97;33.33;101056.78;5096508;28;20131;-70
2021/08/08 11:26:50;;;;;;;6.30;2.60;;;;;;;35.04;33.79;101051.47;5096230;28;20012;-70
2021/08/08 11:29:38;;;;;;;4.22;2.60;;;;;;;35.30;33.65;101046.63;5096100;28;20035;-70
2021/08/08 11:32:28;;;;;;;2.65;2.45;;;;;;;34.84;32.88;101052.91;5095978;28;20028;-69
2021/08/08 11:35:26;;;;;;;3.38;2.40;;;;;;;35.58;32.34;101041.50;5094789;28;20024;-70
2021/08/08 11:38:15;;;;;;;2.60;2.40;;;;;;;35.60;33.43;101037.59;5095321;28;20044;-70
2021/08/08 11:41:01;;;;;;;3.22;2.90;;;;;;;35.56;32.64;101032.69;5094685;28;20032;-70
2021/08/08 11:43:46;;;;;;;6.25;4.32;;;;;;;35.28;32.75;101035.06;5095239;28;20097;-69
2021/08/08 11:46:33;;;;;;;6.72;2.70;;;;;;;35.79;31.81;101031.69;5095071;28;20024;-69
2021/08/08 11:49:22;;;;;;;4.07;2.60;;;;;;;35.34;32.34;101028.03;5095725;28;20035;-70
2021/08/08 11:52:07;;;;;;;2.97;2.50;;;;;;;35.64;32.23;101024.44;5095027;28;20035;-70
2021/08/08 11:55:03;;;;;;;4.93;2.50;;;;;;;35.54;32.03;101023.81;5094685;28;20048;-72
2021/08/08 11:57:49;;;;;;;2.97;2.50;;;;;;;35.68;31.73;101020.34;5094352;28;20478;-71
2021/08/08 12:00:39;;;;;;;3.40;3.00;;;;;;;35.81;32.78;101021.47;5095272;28;20035;-72
2021/08/08 12:03:31;;;;;;;3.20;2.90;;;;;;;36.44;31.49;101019.22;5095050;28;20020;-72
2021/08/08 12:06:24;;;;;;;3.10;2.70;;;;;;;35.91;32.32;101013.88;5095442;28;20123;-72
2021/08/08 12:09:09;;;;;;;2.97;2.63;;;;;;;35.31;32.30;101010.16;5094828;28;20032;-73
2021/08/08 12:11:57;;;;;;;3.72;3.10;;;;;;;36.42;32.13;101017.72;5095466;28;20020;-72
2021/08/08 12:14:45;;;;;;;4.93;2.40;;;;;;;36.09;31.53;101019.03;5094940;28;20034;-72
2021/08/08 12:17:31;;;;;;;4.07;2.70;;;;;;;35.87;31.87;101006.25;5094528;28;20028;-72
2021/08/08 12:20:17;;;;;;;3.78;2.70;;;;;;;35.72;31.51;101008.91;5094075;28;20032;-72
2021/08/08 12:23:17;;;;;;;2.92;2.60;;;;;;;35.95;31.87;101012.47;5094368;28;20513;-71
2021/08/08 12:26:04;;;;;;;3.00;2.55;;;;;;;35.53;32.17;101008.50;5095089;28;20055;-72
2021/08/08 12:29:03;;;;;;;3.65;2.80;;;;;;;35.56;32.64;101008.13;5094275;28;20028;-72
2021/08/08 12:31:48;;;;;;;5.65;3.10;;;;;;;36.09;31.92;101005.38;5094501;28;20024;-72
2021/08/08 12:34:34;;;;;;;5.15;2.83;;;;;;;36.10;32.24;101009.78;5094323;28;20173;-72
2021/08/08 12:37:22;;;;;;;3.25;2.50;;;;;;;36.01;31.77;101000.84;5093656;28;20027;-72
2021/08/08 12:40:09;;;;;;;4.10;3.22;;;;;;;36.28;32.17;101011.19;5094260;28;20028;-72
2021/08/08 12:43:03;;;;;;;3.53;2.72;;;;;;;35.66;32.01;101003.28;5094491;28;20452;-72
2021/08/08 12:45:49;;;;;;;3.38;2.70;;;;;;;36.41;31.71;100997.78;5094094;28;20448;-72
2021/08/08 12:48:35;;;;;;;3.70;2.95;;;;;;;36.15;31.62;101000.03;5094063;28;20464;-72
2021/08/08 12:51:21;;;;;;;3.38;2.65;;;;;;;36.25;31.51;100992.47;5093752;28;20063;-71
2021/08/08 12:54:07;;;;;;;3.00;2.70;;;;;;;36.83;31.32;100995.28;5094670;28;20036;-73